aviador You're here:

PASA Decoded Metar

SAVOONGA in AK, USA
Report Time2017-11-24 02:56:00
UTC Time2017-11-24 03:44:12
Flight Rules vfr VFR
Wind280° at 22 Gusting to 28 kt
W.Decomp.*RWY 23: 16.9 kt HW 14.1 kt RCW
W.Rank280° ranks 24
Current wind is above 280° avg. (7.5)
Visibility9656 m
Phenomena:Light Snow
Clouds:Few 028 Hf
Overcast 041 Hf
Expected CloudBase > 1,600 ft AGL from Temp-Dew spread
Ceiling4,100 ft
Temp-3°C (ISA -18)
Dew Point-7°C (74% RH)
AAT-13.7°C
QNH1019 hPa
Density Alt-2,306 ft
Elevation52 ft
Report Wrong Elevation
Raw Report
PASA 240256Z AUTO 28022G28KT 6SM -SN FEW028 OVC041 M03/M07 A3008
RMK AO2 PK WND 27030/0239 SLP189 P0000 60000 T10281072 53010
FZRANO $=

Extra information for PASA:More info

Metar Taf Metar & Taf Last 4 Metars F.Rules Stats Wind Profile Meteogram Temp Stats Airport Information Weather charts Add Link Nearby VenuesMetar ALERT Operation Metar Decoded Social comments

AIRNAV info for PASA